createdAt,value
2018-09-09T00:00:11.345Z,12.77
2018-09-09T00:01:11.270Z,12.79
2018-09-09T00:02:11.261Z,12.76
2018-09-09T00:03:11.251Z,12.72
2018-09-09T00:04:11.240Z,12.68
2018-09-09T00:05:11.227Z,12.62
2018-09-09T00:06:11.258Z,12.66
2018-09-09T00:07:11.204Z,12.63
2018-09-09T00:08:11.192Z,12.65
2018-09-09T00:09:11.186Z,12.65
2018-09-09T00:10:11.184Z,12.58
2018-09-09T00:11:11.158Z,12.58
2018-09-09T00:12:11.191Z,12.62
2018-09-09T00:13:11.137Z,12.53
2018-09-09T00:14:11.133Z,12.54
2018-09-09T00:15:11.115Z,12.59
2018-09-09T00:16:11.103Z,12.62
2018-09-09T00:17:11.094Z,12.58
2018-09-09T00:18:11.137Z,12.46
2018-09-09T00:19:11.069Z,12.44
2018-09-09T00:20:11.067Z,12.46
2018-09-09T00:21:11.049Z,12.54
2018-09-09T00:22:11.055Z,12.50
2018-09-09T00:23:11.025Z,12.47
2018-09-09T00:24:11.054Z,12.50
2018-09-09T00:25:11.003Z,12.54
2018-09-09T00:26:10.991Z,12.48
2018-09-09T00:27:10.979Z,12.41
2018-09-09T00:28:10.968Z,12.38
2018-09-09T00:29:10.958Z,12.36
2018-09-09T00:30:10.991Z,12.46
2018-09-09T00:31:10.937Z,12.48
2018-09-09T00:32:10.925Z,12.50
2018-09-09T00:33:10.916Z,12.41
2018-09-09T00:34:10.903Z,12.38
2018-09-09T00:35:10.891Z,12.38
2018-09-09T00:36:10.962Z,12.40
2018-09-09T00:37:10.868Z,12.38
2018-09-09T00:38:10.864Z,12.40
2018-09-09T00:39:10.872Z,12.30
2018-09-09T00:40:10.835Z,12.25
2018-09-09T00:41:10.832Z,12.32
2018-09-09T00:42:10.860Z,12.25
2018-09-09T00:43:10.810Z,12.33
2018-09-09T00:44:10.790Z,12.28
2018-09-09T00:45:10.778Z,12.30
2018-09-09T00:46:10.771Z,12.30
2018-09-09T00:47:10.759Z,12.30
2018-09-09T00:48:10.788Z,12.28
2018-09-09T00:49:10.751Z,12.33
2018-09-09T00:50:10.722Z,12.25
2018-09-09T00:51:10.712Z,12.28
2018-09-09T00:52:10.704Z,12.29
2018-09-09T00:53:10.694Z,12.23
2018-09-09T00:54:10.721Z,12.26
2018-09-09T00:55:10.686Z,12.26
2018-09-09T00:56:10.686Z,12.25
2018-09-09T00:57:10.657Z,12.25
2018-09-09T00:58:10.633Z,12.23
2018-09-09T00:59:10.638Z,12.26
2018-09-09T01:00:10.643Z,12.23
2018-09-09T01:01:10.600Z,12.26
2018-09-09T01:02:10.600Z,12.23
2018-09-09T01:03:10.582Z,12.22
2018-09-09T01:04:10.565Z,12.18
2018-09-09T01:05:10.557Z,12.15
2018-09-09T01:06:10.587Z,12.14
2018-09-09T01:07:10.549Z,12.15
2018-09-09T01:08:10.525Z,12.08
2018-09-09T01:09:10.511Z,12.11
2018-09-09T01:10:10.501Z,12.10
2018-09-09T01:11:10.492Z,12.11
2018-09-09T01:12:10.541Z,12.03
2018-09-09T01:13:10.479Z,12.04
2018-09-09T01:14:10.453Z,12.07
2018-09-09T01:15:10.442Z,12.13
2018-09-09T01:16:10.434Z,12.10
2018-09-09T01:17:10.419Z,12.17
2018-09-09T01:18:10.499Z,12.14
2018-09-09T01:19:10.410Z,12.11
2018-09-09T01:20:10.389Z,12.07
2018-09-09T01:21:10.375Z,12.13
2018-09-09T01:22:10.363Z,12.18
2018-09-09T01:23:10.353Z,12.18
2018-09-09T01:24:10.376Z,12.10
2018-09-09T01:25:10.340Z,12.14
2018-09-09T01:26:10.329Z,12.14
2018-09-09T01:27:10.318Z,12.32
2018-09-09T01:28:10.309Z,12.17
2018-09-09T01:29:10.290Z,12.18
2018-09-09T01:30:10.324Z,12.17
2018-09-09T01:31:10.262Z,12.18
2018-09-09T01:32:10.254Z,12.14
2018-09-09T01:33:10.238Z,12.14
2018-09-09T01:34:10.234Z,12.14
2018-09-09T01:35:10.224Z,12.15
2018-09-09T01:36:10.296Z,12.17
2018-09-09T01:37:10.208Z,12.17
2018-09-09T01:38:10.222Z,12.17
2018-09-09T01:39:10.189Z,12.21
2018-09-09T01:40:10.162Z,12.18
2018-09-09T01:41:10.161Z,12.21
2018-09-09T01:42:10.169Z,12.11
2018-09-09T01:43:10.128Z,12.17
2018-09-09T01:44:10.128Z,12.13
2018-09-09T01:45:10.107Z,12.15
2018-09-09T01:46:10.095Z,12.14
2018-09-09T01:47:10.083Z,12.11
2018-09-09T01:48:10.116Z,12.14
2018-09-09T01:49:10.078Z,12.18
2018-09-09T01:50:10.049Z,12.21
2018-09-09T01:51:10.041Z,12.18
2018-09-09T01:52:10.041Z,12.15
2018-09-09T01:53:10.017Z,12.13
2018-09-09T01:54:10.039Z,12.18
2018-09-09T01:55:10.004Z,12.13
2018-09-09T01:56:09.985Z,12.18
2018-09-09T01:57:09.969Z,12.14
2018-09-09T01:58:09.961Z,12.07
2018-09-09T01:59:09.947Z,12.14
2018-09-09T02:00:09.970Z,12.11
2018-09-09T02:01:09.933Z,12.13
2018-09-09T02:02:09.917Z,12.07
2018-09-09T02:03:09.905Z,12.15
2018-09-09T02:04:09.894Z,12.14
2018-09-09T02:05:09.888Z,12.11
2018-09-09T02:06:09.914Z,12.07
2018-09-09T02:07:09.880Z,12.07
2018-09-09T02:08:09.848Z,12.07
2018-09-09T02:09:09.836Z,11.91
2018-09-09T02:10:09.829Z,12.07
2018-09-09T02:11:09.814Z,12.00
2018-09-09T02:12:09.837Z,12.10
2018-09-09T02:13:09.812Z,12.05
2018-09-09T02:14:09.785Z,12.10
2018-09-09T02:15:09.770Z,12.08
2018-09-09T02:16:09.760Z,12.04
2018-09-09T02:17:09.750Z,12.08
2018-09-09T02:18:09.765Z,12.05
2018-09-09T02:19:09.743Z,12.10
2018-09-09T02:20:09.716Z,12.10
2018-09-09T02:21:09.704Z,12.14
2018-09-09T02:22:09.694Z,12.11
2018-09-09T02:23:09.684Z,12.15
2018-09-09T02:24:09.709Z,12.23
2018-09-09T02:25:09.669Z,12.25
2018-09-09T02:26:09.655Z,12.29
2018-09-09T02:27:09.650Z,12.21
2018-09-09T02:28:09.625Z,12.25
2018-09-09T02:29:09.617Z,12.32
2018-09-09T02:30:09.635Z,12.22
2018-09-09T02:31:09.592Z,12.28
2018-09-09T02:32:09.601Z,12.26
2018-09-09T02:33:09.577Z,12.23
2018-09-09T02:34:09.560Z,12.29
2018-09-09T02:35:09.546Z,12.30
2018-09-09T02:36:09.572Z,12.23
2018-09-09T02:37:09.530Z,12.22
2018-09-09T02:38:09.511Z,12.15
2018-09-09T02:39:09.513Z,12.17
2018-09-09T02:40:09.488Z,12.18
2018-09-09T02:41:09.481Z,12.18
2018-09-09T02:42:09.517Z,12.25
2018-09-09T02:43:09.457Z,12.21
2018-09-09T02:44:09.446Z,12.26
2018-09-09T02:45:09.442Z,12.18
2018-09-09T02:46:09.420Z,12.23
2018-09-09T02:47:09.410Z,12.28
2018-09-09T02:48:09.432Z,12.26
2018-09-09T02:49:09.389Z,12.32
2018-09-09T02:50:09.380Z,12.25
2018-09-09T02:51:09.378Z,12.26
2018-09-09T02:52:09.356Z,12.25
2018-09-09T02:53:09.345Z,12.23
2018-09-09T02:54:09.366Z,12.17
2018-09-09T02:55:09.331Z,12.22
2018-09-09T02:56:09.318Z,12.21
2018-09-09T02:57:09.317Z,12.21
2018-09-09T02:58:09.288Z,12.18
2018-09-09T02:59:09.277Z,12.17
2018-09-09T03:00:09.303Z,12.15
2018-09-09T03:01:09.255Z,12.11
2018-09-09T03:02:09.245Z,12.13
2018-09-09T03:03:09.242Z,12.18
2018-09-09T03:04:09.231Z,12.18
2018-09-09T03:05:09.216Z,12.21
2018-09-09T03:06:09.235Z,12.18
2018-09-09T03:07:09.195Z,12.14
2018-09-09T03:08:09.198Z,12.08
2018-09-09T03:09:09.164Z,12.15
2018-09-09T03:10:09.158Z,12.21
2018-09-09T03:11:09.140Z,12.21
2018-09-09T03:12:09.161Z,12.22
2018-09-09T03:13:09.121Z,12.36
2018-09-09T03:14:09.124Z,12.35
2018-09-09T03:15:09.116Z,12.43
2018-09-09T03:16:09.086Z,12.46
2018-09-09T03:17:09.073Z,12.47
2018-09-09T03:18:09.103Z,12.33
2018-09-09T03:19:09.053Z,12.35
2018-09-09T03:20:09.040Z,12.41
2018-09-09T03:21:09.035Z,12.44
2018-09-09T03:22:09.017Z,12.50
2018-09-09T03:23:09.007Z,12.46
2018-09-09T03:24:09.028Z,12.46
2018-09-09T03:25:08.983Z,12.40
2018-09-09T03:26:08.972Z,12.51
2018-09-09T03:27:08.979Z,12.51
2018-09-09T03:28:08.950Z,12.48
2018-09-09T03:29:08.940Z,12.50
2018-09-09T03:30:08.963Z,12.62
2018-09-09T03:31:08.917Z,12.55
2018-09-09T03:32:08.919Z,12.50
2018-09-09T03:33:08.912Z,12.59
2018-09-09T03:34:08.884Z,12.53
2018-09-09T03:35:08.872Z,12.54
2018-09-09T03:36:08.916Z,12.58
2018-09-09T03:37:08.852Z,12.41
2018-09-09T03:38:08.840Z,12.50
2018-09-09T03:39:08.844Z,12.55
2018-09-09T03:40:08.818Z,12.51
2018-09-09T03:41:08.807Z,12.46
2018-09-09T03:42:08.828Z,12.46
2018-09-09T03:43:08.784Z,12.41
2018-09-09T03:44:08.773Z,12.47
2018-09-09T03:45:08.777Z,12.50
2018-09-09T03:46:08.770Z,12.40
2018-09-09T03:47:08.761Z,12.53
2018-09-09T03:48:08.772Z,12.50
2018-09-09T03:49:08.718Z,12.59
2018-09-09T03:50:08.727Z,12.51
2018-09-09T03:51:08.693Z,12.62
2018-09-09T03:52:08.683Z,12.58
2018-09-09T03:53:08.678Z,12.55
2018-09-09T03:54:08.698Z,12.65
2018-09-09T03:55:08.651Z,12.69
2018-09-09T03:56:08.640Z,12.79
2018-09-09T03:57:08.628Z,12.86
2018-09-09T03:58:08.628Z,12.90
2018-09-09T03:59:08.610Z,12.93
2018-09-09T04:00:08.627Z,13.04
2018-09-09T04:01:08.584Z,12.99
2018-09-09T04:02:08.570Z,13.09
2018-09-09T04:03:08.560Z,13.08
2018-09-09T04:04:08.554Z,13.05
2018-09-09T04:05:08.545Z,13.05
2018-09-09T04:06:08.565Z,12.96
2018-09-09T04:07:08.516Z,13.01
2018-09-09T04:08:08.504Z,13.01
2018-09-09T04:09:08.516Z,12.98
2018-09-09T04:10:08.526Z,13.02
2018-09-09T04:11:08.483Z,13.06
2018-09-09T04:12:08.500Z,13.05
2018-09-09T04:13:08.451Z,13.16
2018-09-09T04:14:08.438Z,13.13
2018-09-09T04:15:08.438Z,13.20
2018-09-09T04:16:08.415Z,13.16
2018-09-09T04:17:08.411Z,13.17
2018-09-09T04:18:08.424Z,13.23
2018-09-09T04:19:08.381Z,13.13
2018-09-09T04:20:08.372Z,13.13
2018-09-09T04:21:08.358Z,13.16
2018-09-09T04:22:08.351Z,13.11
2018-09-09T04:23:08.347Z,13.05
2018-09-09T04:24:08.358Z,12.96
2018-09-09T04:25:08.317Z,12.90
2018-09-09T04:26:08.303Z,12.90
2018-09-09T04:27:08.294Z,12.84
2018-09-09T04:28:08.284Z,12.81
2018-09-09T04:29:08.342Z,12.80
2018-09-09T04:30:08.295Z,12.68
2018-09-09T04:31:08.248Z,12.72
2018-09-09T04:32:08.242Z,12.66
2018-09-09T04:33:08.227Z,12.65
2018-09-09T04:34:08.219Z,12.58
2018-09-09T04:35:08.219Z,12.61
2018-09-09T04:36:08.226Z,12.53
2018-09-09T04:37:08.183Z,12.44
2018-09-09T04:38:08.175Z,12.51
2018-09-09T04:39:08.161Z,12.48
2018-09-09T04:40:08.153Z,12.43
2018-09-09T04:41:08.155Z,12.50
2018-09-09T04:42:08.155Z,12.48
2018-09-09T04:43:08.117Z,12.48
2018-09-09T04:44:08.103Z,12.43
2018-09-09T04:45:08.094Z,12.38
2018-09-09T04:46:08.086Z,12.33
2018-09-09T04:47:08.107Z,12.33
2018-09-09T04:48:08.108Z,12.36
2018-09-09T04:49:08.048Z,12.36
2018-09-09T04:50:08.037Z,12.33
2018-09-09T04:51:08.027Z,12.32
2018-09-09T04:52:08.018Z,12.23
2018-09-09T04:53:08.019Z,12.28
2018-09-09T04:54:08.037Z,12.25
2018-09-09T04:55:07.983Z,12.30
2018-09-09T04:56:07.966Z,12.30
2018-09-09T04:57:07.959Z,12.35
2018-09-09T04:58:07.950Z,12.26
2018-09-09T04:59:07.949Z,12.23
2018-09-09T05:00:07.969Z,12.32
2018-09-09T05:01:07.959Z,12.29
2018-09-09T05:02:07.904Z,12.32
2018-09-09T05:03:07.893Z,12.28
2018-09-09T05:04:07.887Z,12.30
2018-09-09T05:05:07.877Z,12.35
2018-09-09T05:06:07.910Z,12.36
2018-09-09T05:07:07.847Z,12.33
2018-09-09T05:08:07.836Z,12.35
2018-09-09T05:09:07.826Z,12.46
2018-09-09T05:10:07.815Z,12.44
2018-09-09T05:11:07.803Z,12.47
2018-09-09T05:12:07.907Z,12.48
2018-09-09T05:13:07.782Z,12.47
2018-09-09T05:14:07.768Z,12.50
2018-09-09T05:15:07.759Z,12.50
2018-09-09T05:16:07.747Z,12.48
2018-09-09T05:17:07.735Z,12.59
2018-09-09T05:18:07.782Z,12.54
2018-09-09T05:19:07.714Z,12.58
2018-09-09T05:20:07.701Z,12.58
2018-09-09T05:21:07.691Z,12.68
2018-09-09T05:22:07.679Z,12.63
2018-09-09T05:23:07.668Z,12.66
2018-09-09T05:24:07.703Z,12.77
2018-09-09T05:25:07.647Z,12.71
2018-09-09T05:26:07.634Z,12.77
2018-09-09T05:27:07.624Z,12.79
2018-09-09T05:28:07.612Z,12.83
2018-09-09T05:29:07.604Z,12.84
2018-09-09T05:30:07.646Z,12.93
2018-09-09T05:31:07.582Z,12.88
2018-09-09T05:32:07.572Z,13.01
2018-09-09T05:33:07.561Z,12.96
2018-09-09T05:34:07.547Z,13.04
2018-09-09T05:35:07.537Z,13.17
2018-09-09T05:36:07.571Z,13.14
2018-09-09T05:37:07.518Z,13.21
2018-09-09T05:38:07.515Z,13.21
2018-09-09T05:39:07.499Z,13.29
2018-09-09T05:40:07.479Z,13.36
2018-09-09T05:41:07.483Z,13.45
2018-09-09T05:42:07.498Z,13.43
2018-09-09T05:43:07.446Z,13.55
2018-09-09T05:44:07.444Z,13.55
2018-09-09T05:45:07.437Z,13.51
2018-09-09T05:46:07.424Z,13.53
2018-09-09T05:47:07.411Z,13.53
2018-09-09T05:48:07.443Z,13.54
2018-09-09T05:49:07.382Z,13.61
2018-09-09T05:50:07.370Z,13.63
2018-09-09T05:51:07.359Z,13.57
2018-09-09T05:52:07.349Z,13.61
2018-09-09T05:53:07.393Z,13.60
2018-09-09T05:54:07.365Z,13.61
2018-09-09T05:55:07.314Z,13.75
2018-09-09T05:56:07.307Z,13.75
2018-09-09T05:57:07.295Z,13.73
2018-09-09T05:58:07.282Z,13.76
2018-09-09T05:59:07.271Z,13.82
2018-09-09T06:00:07.347Z,13.80
2018-09-09T06:01:07.254Z,13.82
2018-09-09T06:02:07.238Z,13.86
2018-09-09T06:03:07.232Z,13.90
2018-09-09T06:04:07.215Z,13.94
2018-09-09T06:05:07.205Z,13.93
2018-09-09T06:06:07.320Z,13.96
2018-09-09T06:07:07.186Z,14.00
2018-09-09T06:08:07.171Z,14.09
2018-09-09T06:09:07.160Z,14.09
2018-09-09T06:10:07.154Z,14.09
2018-09-09T06:11:07.142Z,14.16
2018-09-09T06:12:07.170Z,14.21
2018-09-09T06:13:07.138Z,14.22
2018-09-09T06:14:07.106Z,14.33
2018-09-09T06:15:07.096Z,14.41
2018-09-09T06:16:07.083Z,14.48
2018-09-09T06:17:07.071Z,14.40
2018-09-09T06:18:07.100Z,14.51
2018-09-09T06:19:07.054Z,14.48
2018-09-09T06:20:07.051Z,14.58
2018-09-09T06:21:07.044Z,14.63
2018-09-09T06:22:07.049Z,14.67
2018-09-09T06:23:07.011Z,14.71
2018-09-09T06:24:07.027Z,14.78
2018-09-09T06:25:06.987Z,14.87
2018-09-09T06:26:07.000Z,14.82
2018-09-09T06:27:06.962Z,14.85
2018-09-09T06:28:06.962Z,14.96
2018-09-09T06:29:06.944Z,14.97
2018-09-09T06:30:06.968Z,15.08
2018-09-09T06:31:06.924Z,15.08
2018-09-09T06:32:06.931Z,15.07
2018-09-09T06:33:06.894Z,15.11
2018-09-09T06:34:06.893Z,15.25
2018-09-09T06:35:06.872Z,15.25
2018-09-09T06:36:06.902Z,15.30
2018-09-09T06:37:06.878Z,15.29
2018-09-09T06:38:06.848Z,15.29
2018-09-09T06:39:06.844Z,15.30
2018-09-09T06:40:06.829Z,15.43
2018-09-09T06:41:06.807Z,15.58
2018-09-09T06:42:06.826Z,15.44
2018-09-09T06:43:06.828Z,15.63
2018-09-09T06:44:06.772Z,15.66
2018-09-09T06:45:06.765Z,15.68
2018-09-09T06:46:06.744Z,15.70
2018-09-09T06:47:06.735Z,15.68
2018-09-09T06:48:06.753Z,15.68
2018-09-09T06:49:06.709Z,15.77
2018-09-09T06:50:06.709Z,15.85
2018-09-09T06:51:06.748Z,15.85
2018-09-09T06:52:06.676Z,15.98
2018-09-09T06:53:06.672Z,16.14
2018-09-09T06:54:06.731Z,16.22
2018-09-09T06:55:06.641Z,16.22
2018-09-09T06:56:06.633Z,16.25
2018-09-09T06:57:06.620Z,16.33
2018-09-09T06:58:06.607Z,16.28
2018-09-09T06:59:06.615Z,16.25
2018-09-09T07:00:06.629Z,16.37
2018-09-09T07:01:06.576Z,16.46
2018-09-09T07:02:06.564Z,16.46
2018-09-09T07:03:06.554Z,16.46
2018-09-09T07:04:06.566Z,16.49
2018-09-09T07:05:06.552Z,16.51
2018-09-09T07:06:06.549Z,16.51
2018-09-09T07:07:06.509Z,16.58
2018-09-09T07:08:06.501Z,16.55
2018-09-09T07:09:06.486Z,16.58
2018-09-09T07:10:06.480Z,16.69
2018-09-09T07:11:06.525Z,16.80
2018-09-09T07:12:06.568Z,16.76
2018-09-09T07:13:06.445Z,16.83
2018-09-09T07:14:06.431Z,16.88
2018-09-09T07:15:06.427Z,16.92
2018-09-09T07:16:06.408Z,16.94
2018-09-09T07:17:06.460Z,16.95
2018-09-09T07:18:06.434Z,16.97
2018-09-09T07:19:06.421Z,16.98
2018-09-09T07:20:06.365Z,17.02
2018-09-09T07:21:06.353Z,17.07
2018-09-09T07:22:06.345Z,17.10
2018-09-09T07:23:06.337Z,17.14
2018-09-09T07:24:06.360Z,17.16
2018-09-09T07:25:06.356Z,17.22
2018-09-09T07:26:06.298Z,17.19
2018-09-09T07:27:06.298Z,17.30
2018-09-09T07:28:06.275Z,17.22
2018-09-09T07:29:06.266Z,17.31
2018-09-09T07:30:06.324Z,17.35
2018-09-09T07:31:06.276Z,17.41
2018-09-09T07:32:06.231Z,17.35
2018-09-09T07:33:06.241Z,17.47
2018-09-09T07:34:06.266Z,17.47
2018-09-09T07:35:06.200Z,17.39
2018-09-09T07:36:06.217Z,17.49
2018-09-09T07:37:06.187Z,17.54
2018-09-09T07:38:06.178Z,17.56
2018-09-09T07:39:06.158Z,17.57
2018-09-09T07:40:06.144Z,17.49
2018-09-09T07:41:06.138Z,17.52
2018-09-09T07:42:06.154Z,17.50
2018-09-09T07:43:06.109Z,17.50
2018-09-09T07:44:06.121Z,17.53
2018-09-09T07:45:06.091Z,17.50
2018-09-09T07:46:06.100Z,17.49
2018-09-09T07:47:06.066Z,17.47
2018-09-09T07:48:06.100Z,17.47
2018-09-09T07:49:06.045Z,17.49
2018-09-09T07:50:06.042Z,17.59
2018-09-09T07:51:06.023Z,17.59
2018-09-09T07:52:06.010Z,17.57
2018-09-09T07:53:06.046Z,17.62
2018-09-09T07:54:06.051Z,17.62
2018-09-09T07:55:06.008Z,17.63
2018-09-09T07:56:05.966Z,17.76
2018-09-09T07:57:05.969Z,17.84
2018-09-09T07:58:05.951Z,17.90
2018-09-09T07:59:05.943Z,17.96
2018-09-09T08:00:05.966Z,18.11
2018-09-09T08:01:05.912Z,18.28
2018-09-09T08:02:05.912Z,18.36
2018-09-09T08:03:05.899Z,18.61
2018-09-09T08:04:05.899Z,18.63
2018-09-09T08:05:05.873Z,18.89
2018-09-09T08:06:06.008Z,18.96
2018-09-09T08:07:05.844Z,19.13
2018-09-09T08:08:05.833Z,19.20
2018-09-09T08:09:05.861Z,19.24
2018-09-09T08:10:05.851Z,19.32
2018-09-09T08:11:05.804Z,19.30
2018-09-09T08:12:05.899Z,19.26
2018-09-09T08:13:05.800Z,19.35
2018-09-09T08:14:05.768Z,19.34
2018-09-09T08:15:05.770Z,19.35
2018-09-09T08:16:05.758Z,19.27
2018-09-09T08:17:05.744Z,19.38
2018-09-09T08:18:05.755Z,19.41
2018-09-09T08:19:05.709Z,19.47
2018-09-09T08:20:05.717Z,19.53
2018-09-09T08:21:05.697Z,19.59
2018-09-09T08:22:13.729Z,19.63
2018-09-09T08:23:14.979Z,19.57
2018-09-09T08:24:05.654Z,19.75
2018-09-09T08:25:13.513Z,19.81
2018-09-09T08:26:05.637Z,19.72
2018-09-09T08:27:05.621Z,19.71
2018-09-09T08:28:13.483Z,19.81
2018-09-09T08:29:05.629Z,19.81
2018-09-09T08:30:05.586Z,20.02
2018-09-09T08:31:05.576Z,19.96
2018-09-09T08:32:05.565Z,19.97
2018-09-09T08:33:05.556Z,19.93
2018-09-09T08:34:05.541Z,19.90
2018-09-09T08:35:05.560Z,19.90
2018-09-09T08:36:05.536Z,19.90
2018-09-09T08:37:05.527Z,19.82
2018-09-09T08:38:05.500Z,20.00
2018-09-09T08:39:05.486Z,19.97
2018-09-09T08:40:05.496Z,20.07
2018-09-09T08:41:05.512Z,20.14
2018-09-09T08:42:05.453Z,20.08
2018-09-09T08:43:05.444Z,20.17
2018-09-09T08:44:05.431Z,20.15
2018-09-09T08:45:05.436Z,20.23
2018-09-09T08:46:05.414Z,20.41
2018-09-09T08:47:05.448Z,20.50
2018-09-09T08:48:05.389Z,20.52
2018-09-09T08:49:05.437Z,20.50
2018-09-09T08:50:05.376Z,20.64
2018-09-09T08:51:05.354Z,20.70
2018-09-09T08:52:05.450Z,20.70
2018-09-09T08:53:05.381Z,20.70
2018-09-09T08:54:05.332Z,20.67
2018-09-09T08:55:05.328Z,20.65
2018-09-09T08:56:05.296Z,20.67
2018-09-09T08:57:05.288Z,20.68
2018-09-09T08:58:05.279Z,20.71
2018-09-09T08:59:05.370Z,20.71
2018-09-09T09:00:05.254Z,20.65
2018-09-09T09:01:05.249Z,20.70
2018-09-09T09:02:05.241Z,20.67
2018-09-09T09:03:05.232Z,20.75
2018-09-09T09:04:05.210Z,20.74
2018-09-09T09:05:05.228Z,20.89
2018-09-09T09:06:05.188Z,20.86
2018-09-09T09:07:05.181Z,21.03
2018-09-09T09:08:05.232Z,21.14
2018-09-09T09:09:05.155Z,21.22
2018-09-09T09:10:05.146Z,21.13
2018-09-09T09:11:05.174Z,21.20
2018-09-09T09:12:05.173Z,21.23
2018-09-09T09:13:05.125Z,21.30
2018-09-09T09:14:05.112Z,21.40
2018-09-09T09:15:05.116Z,21.45
2018-09-09T09:16:05.103Z,21.41
2018-09-09T09:17:05.109Z,21.45
2018-09-09T09:18:05.058Z,21.28
2018-09-09T09:19:05.049Z,21.32
2018-09-09T09:20:05.048Z,21.41
2018-09-09T09:21:05.035Z,21.32
2018-09-09T09:22:05.015Z,21.40
2018-09-09T09:23:05.034Z,21.37
2018-09-09T09:24:04.993Z,21.30
2018-09-09T09:25:04.998Z,21.41
2018-09-09T09:26:04.995Z,21.44
2018-09-09T09:27:04.977Z,21.55
2018-09-09T09:28:04.951Z,21.48
2018-09-09T09:29:04.966Z,21.41
2018-09-09T09:30:04.923Z,21.38
2018-09-09T09:31:04.914Z,21.37
2018-09-09T09:32:04.902Z,21.14
2018-09-09T09:33:04.899Z,21.10
2018-09-09T09:34:04.887Z,21.03
2018-09-09T09:35:04.939Z,21.14
2018-09-09T09:36:04.879Z,21.32
2018-09-09T09:37:04.857Z,21.41
2018-09-09T09:38:04.840Z,21.56
2018-09-09T09:39:04.847Z,21.51
2018-09-09T09:40:04.828Z,21.35
2018-09-09T09:41:04.847Z,21.41
2018-09-09T09:42:04.831Z,21.35
2018-09-09T09:43:04.786Z,21.40
2018-09-09T09:44:04.777Z,21.32
2018-09-09T09:45:04.764Z,21.18
2018-09-09T09:46:04.792Z,21.23
2018-09-09T09:47:04.794Z,21.18
2018-09-09T09:48:05.022Z,21.35
2018-09-09T09:49:04.737Z,21.50
2018-09-09T09:50:04.753Z,21.60
2018-09-09T09:51:04.701Z,21.50
2018-09-09T09:52:04.695Z,21.40
2018-09-09T09:53:05.189Z,21.51
2018-09-09T09:54:04.679Z,21.62
2018-09-09T09:55:04.692Z,21.59
2018-09-09T09:56:04.667Z,21.56
2018-09-09T09:57:04.647Z,21.44
2018-09-09T09:58:04.661Z,21.35
2018-09-09T09:59:04.611Z,21.43
2018-09-09T10:00:04.636Z,21.55
2018-09-09T10:01:04.594Z,21.44
2018-09-09T10:02:04.592Z,21.51
2018-09-09T10:03:04.794Z,21.66
2018-09-09T10:04:04.587Z,21.66
2018-09-09T10:05:04.557Z,21.67
2018-09-09T10:06:04.598Z,21.62
2018-09-09T10:07:04.526Z,21.65
2018-09-09T10:08:04.512Z,21.69
2018-09-09T10:09:04.524Z,21.74
2018-09-09T10:10:04.535Z,21.74
2018-09-09T10:11:04.545Z,21.88
2018-09-09T10:12:04.473Z,21.98
2018-09-09T10:13:04.468Z,21.97
2018-09-09T10:14:04.457Z,21.98
2018-09-09T10:15:04.471Z,22.11
2018-09-09T10:16:04.471Z,22.22
2018-09-09T10:17:04.486Z,22.25
2018-09-09T10:18:04.409Z,22.38
2018-09-09T10:19:04.400Z,22.41
2018-09-09T10:20:04.468Z,22.43
2018-09-09T10:21:04.381Z,22.51
2018-09-09T10:22:04.399Z,22.37
2018-09-09T10:23:04.363Z,22.48
2018-09-09T10:24:04.336Z,22.51
2018-09-09T10:25:04.337Z,22.58
2018-09-09T10:26:04.315Z,22.51
2018-09-09T10:27:04.305Z,22.46
2018-09-09T10:28:04.338Z,22.44
2018-09-09T10:29:04.286Z,22.59
2018-09-09T10:30:04.300Z,22.61
2018-09-09T10:31:04.264Z,22.53
2018-09-09T10:32:04.259Z,22.56
2018-09-09T10:33:04.253Z,22.68
2018-09-09T10:34:04.272Z,22.68
2018-09-09T10:35:04.216Z,22.83
2018-09-09T10:36:04.210Z,22.88
2018-09-09T10:37:04.200Z,22.78
2018-09-09T10:38:04.184Z,22.93
2018-09-09T10:39:04.173Z,23.03
2018-09-09T10:40:04.199Z,23.13
2018-09-09T10:41:04.152Z,23.14
2018-09-09T10:42:04.194Z,23.26
2018-09-09T10:43:04.132Z,23.14
2018-09-09T10:44:04.165Z,23.23
2018-09-09T10:45:04.117Z,23.22
2018-09-09T10:46:04.252Z,23.23
2018-09-09T10:47:04.175Z,23.28
2018-09-09T10:48:04.081Z,23.29
2018-09-09T10:49:04.076Z,23.29
2018-09-09T10:50:04.074Z,23.39
2018-09-09T10:51:04.060Z,23.26
2018-09-09T10:52:04.079Z,23.21
2018-09-09T10:53:04.092Z,23.31
2018-09-09T10:54:04.010Z,23.41
2018-09-09T10:55:04.017Z,23.29
2018-09-09T10:56:04.027Z,23.31
2018-09-09T10:57:03.978Z,23.31
2018-09-09T10:58:03.996Z,23.28
2018-09-09T10:59:03.960Z,23.28
2018-09-09T11:00:03.948Z,23.37
2018-09-09T11:01:03.943Z,23.44
2018-09-09T11:02:03.999Z,23.36
2018-09-09T11:03:03.926Z,23.41
2018-09-09T11:04:03.971Z,23.39
2018-09-09T11:05:03.890Z,23.52
2018-09-09T11:06:03.934Z,23.48
2018-09-09T11:07:04.030Z,23.49
2018-09-09T11:08:03.858Z,23.60
2018-09-09T11:09:03.849Z,23.94
2018-09-09T11:10:03.893Z,23.97
2018-09-09T11:11:03.832Z,24.04
2018-09-09T11:12:03.821Z,23.84
2018-09-09T11:13:03.910Z,23.84
2018-09-09T11:14:03.793Z,23.89
2018-09-09T11:15:03.900Z,24.06
2018-09-09T11:16:03.826Z,24.08
2018-09-09T11:17:03.764Z,24.23
2018-09-09T11:18:04.572Z,24.38
2018-09-09T11:19:04.632Z,24.34
2018-09-09T11:20:04.566Z,24.33
2018-09-09T11:21:03.738Z,24.33
2018-09-09T11:22:03.747Z,24.31
2018-09-09T11:23:03.701Z,24.23
2018-09-09T11:24:03.707Z,24.26
2018-09-09T11:25:03.673Z,24.04
2018-09-09T11:26:03.686Z,23.96
2018-09-09T11:27:03.649Z,24.03
2018-09-09T11:28:03.665Z,24.22
2018-09-09T11:29:03.628Z,24.16
2018-09-09T11:30:03.697Z,24.25
2018-09-09T11:31:03.602Z,24.25
2018-09-09T11:32:03.609Z,24.25
2018-09-09T11:33:03.591Z,24.22
2018-09-09T11:34:03.614Z,24.18
2018-09-09T11:35:03.559Z,24.19
2018-09-09T11:36:03.563Z,24.34
2018-09-09T11:37:03.536Z,24.31
2018-09-09T11:38:03.546Z,24.43
2018-09-09T11:39:03.514Z,24.58
2018-09-09T11:40:03.536Z,24.65
2018-09-09T11:41:03.497Z,24.71
2018-09-09T11:42:03.481Z,24.78
2018-09-09T11:43:03.465Z,24.76
2018-09-09T11:44:03.487Z,24.60
2018-09-09T11:45:03.441Z,24.48
2018-09-09T11:46:03.463Z,24.52
2018-09-09T11:47:03.420Z,24.47
2018-09-09T11:48:03.410Z,24.68
2018-09-09T11:49:03.399Z,24.62
2018-09-09T11:50:03.432Z,24.85
2018-09-09T11:51:03.374Z,24.85
2018-09-09T11:52:03.401Z,24.89
2018-09-09T11:53:03.400Z,24.66
2018-09-09T11:54:03.344Z,24.62
2018-09-09T11:55:03.332Z,24.62
2018-09-09T11:56:03.338Z,24.74
2018-09-09T11:57:03.310Z,24.99
2018-09-09T11:58:03.347Z,25.27
2018-09-09T11:59:03.292Z,25.31
2018-09-09T12:00:03.282Z,25.28
2018-09-09T12:01:03.305Z,25.33
2018-09-09T12:02:03.319Z,25.63
2018-09-09T12:03:03.245Z,25.73
2018-09-09T12:04:03.265Z,25.88
2018-09-09T12:05:03.225Z,26.15
2018-09-09T12:06:03.215Z,26.30
2018-09-09T12:07:03.220Z,26.45
2018-09-09T12:08:03.210Z,26.38
2018-09-09T12:09:03.183Z,26.19
2018-09-09T12:10:03.211Z,26.33
2018-09-09T12:11:03.160Z,26.63
2018-09-09T12:12:03.153Z,26.80
2018-09-09T12:13:03.144Z,26.93
2018-09-09T12:14:03.171Z,27.17
2018-09-09T12:15:03.120Z,27.53
2018-09-09T12:16:03.158Z,27.40
2018-09-09T12:17:03.096Z,27.47
2018-09-09T12:18:03.100Z,27.60
2018-09-09T12:19:03.076Z,27.63
2018-09-09T12:20:03.089Z,27.75
2018-09-09T12:21:03.055Z,28.00
2018-09-09T12:22:03.080Z,28.05
2018-09-09T12:23:03.032Z,28.66
2018-09-09T12:24:03.027Z,29.12
2018-09-09T12:25:03.026Z,29.36
2018-09-09T12:26:03.101Z,29.54
2018-09-09T12:27:02.993Z,29.13
2018-09-09T12:28:03.015Z,29.27
2018-09-09T12:29:02.972Z,29.03
2018-09-09T12:30:02.964Z,28.59
2018-09-09T12:31:02.952Z,28.50
2018-09-09T12:32:02.975Z,28.54
2018-09-09T12:33:02.992Z,28.84
2018-09-09T12:34:02.972Z,29.25
2018-09-09T12:35:02.922Z,29.17
2018-09-09T12:36:02.902Z,29.13
2018-09-09T12:37:02.890Z,29.84
2018-09-09T12:38:02.904Z,30.07
2018-09-09T12:39:02.880Z,30.62
2018-09-09T12:40:02.920Z,30.80
2018-09-09T12:41:02.848Z,30.80
2018-09-09T12:42:02.844Z,30.82
2018-09-09T12:43:02.837Z,30.74
2018-09-09T12:44:02.818Z,30.92
2018-09-09T12:45:02.821Z,31.02
2018-09-09T12:46:02.827Z,30.73
2018-09-09T12:47:02.797Z,30.53
2018-09-09T12:48:02.788Z,30.65
2018-09-09T12:49:02.770Z,31.14
2018-09-09T12:50:02.760Z,31.05
2018-09-09T12:51:02.770Z,30.82
2018-09-09T12:52:02.773Z,30.65